x

Apk - Aripeka, Fl (arpf1) Weather Station

10:54am - Sun 16th Dec 2018 All times are EST. -5 hours from GMT.

  • Wind
    2mph, 5mph gusts
  • Air Temp 68°f
  • Sea Pressure 1021.8mb
  • Apk - Aripeka, Fl
  • Apk - Aripeka, Fl

More Historic Weather Station data

Upgrade to MSW Pro to gain access to the past 30 days of data for over 8000 Wavebouys and Weather Stations around the globe.

Join

Comparision Forecast

View Surf forecast
   
Sun 12/16 10:54am 2 5 mph 1021.8mb 68f
9:54am 3 6 mph 1022.2mb 73f
Sat 12/15 12:54am 3 6 mph 1016.3mb 67f
Fri 12/14 11:54pm 3 7 mph 1016.8mb 67f
10:54pm 14 22 mph 1016.4mb 68f
9:54pm 9 17 mph 1015.7mb 74f
8:54pm 6 14 mph 1014.9mb 73f
7:54pm 6 13 mph 1015.3mb 73f
6:54pm 3 6 mph 1015.2mb 72f
5:54pm 9 15 mph 1014.9mb 71f
4:54pm 6 8 mph 1014.6mb 72f
3:54pm 2 3 mph 1014.2mb 81f
2:54pm 2 5 mph 1013.9mb 81f
1:54pm 5 9 mph 1014.1mb 80f
12:54pm 7 9 mph 1014.6mb 74f
11:54am 5 9 mph 1017.7mb 74f
10:54am 6 16 mph 1016.8mb 73f
9:54am 8 21 mph 1016.8mb 78f
8:54am 6 16 mph 1015.6mb 82f
7:54am 5 8 mph 1015.5mb 81f
6:54am 6 8 mph 1015.1mb 73f
5:54am 7 9 mph 1014.8mb 71f
4:54am 5 6 mph 1015.6mb 78f
3:54am 5 7 mph 1015.5mb 74f
2:54am 3 6 mph 1016mb 75f
1:54am 6 8 mph 1015.1mb 73f
12:54am 5 9 mph 1015.7mb 73f
Thu 12/13 11:54pm 6 14 mph 1016.3mb 74f
10:54pm 8 14 mph 1016.8mb 78f
9:54pm 6 9 mph 1016.9mb 81f
8:54pm 5 15 mph 1016.6mb 81f
7:54pm 6 11 mph 1017.6mb 81f
6:54pm 7 10 mph 1018mb 81f
5:54pm 5 6 mph 1018.2mb 82f
4:54pm 3 6 mph 1018.3mb 83f